Laguna, New Mexico
Current Conditions -  °F | °C
As of 7:56 AM on Thursday 30 Oct 2014 (Local Time) from KGNT Reporting Station
Clear Clear  
Wind Chill: 15°   Ceiling: Unl
Heat Index: 27°   Visibility: 10mi
Dew Point: 14°   Wind: 14mph
Humidity: 59%   Direction: 310°NW
Pressure: 30.4"   Gusts: NA
Location:  35.04°N, 107.39°W
Report Text: KGNT 301356Z AUTO 31012KT 10SM CLR M03/M10 A3040 RMK AO2
Loading
Personal Weather Stations






























Interactive Weather Map
Tropical Storm Tracking
New forecast layout! Learn more

10-Day Weather Forecast

Advertisements
Track Severe Weather on mobile